Time;durP1;ratioP1;P1;durP2;ratioP2;P2;SDS_P1;SDS_P2;PMS_P1;PMS_P2;Temp;Humidity;BMP_temperature;BMP_pressure;BME280_temperature;BME280_humidity;BME280_pressure;Samples;Min_cycle;Max_cycle;Signal;HPM_P1;HPM_P2
2021/01/08 00:00:06;;;;;;;1999.90;999.90;;;-0.60;99.90;;;;;;5031879;28;20453;-50
2021/01/08 00:02:32;;;;;;;1999.90;999.90;;;-0.60;99.90;;;;;;5051542;28;20202;-47
2021/01/08 00:04:57;;;;;;;1999.90;999.90;;;-0.60;99.90;;;;;;5033666;28;20484;-50
2021/01/08 06:11:41;;;;;;;1999.90;999.90;;;-1.00;99.90;;;;;;5060769;28;20571;-48
2021/01/08 06:14:07;;;;;;;1999.90;999.90;;;-1.00;99.90;;;;;;5065619;28;20451;-50
2021/01/08 06:16:40;;;;;;;1999.90;999.90;;;-1.00;99.90;;;;;;5055964;28;20443;-47
2021/01/08 06:19:06;;;;;;;1999.90;999.90;;;-1.00;99.90;;;;;;5049700;28;20441;-48
2021/01/08 06:21:40;;;;;;;1999.90;999.90;;;-1.00;99.90;;;;;;5069377;28;20423;-47
2021/01/08 06:24:14;;;;;;;1999.90;999.90;;;-1.00;99.90;;;;;;5050510;28;20446;-48
2021/01/08 06:26:41;;;;;;;1999.90;999.90;;;-0.90;99.90;;;;;;5048786;28;20905;-53
2021/01/08 06:29:20;;;;;;;1999.90;999.90;;;-0.80;99.90;;;;;;5065252;28;20528;-49
2021/01/08 06:31:49;;;;;;;1999.90;999.90;;;-0.90;99.90;;;;;;5051497;28;20448;-47
2021/01/08 06:34:26;;;;;;;1999.90;999.90;;;-0.90;99.90;;;;;;5048718;28;20452;-49
2021/01/08 06:37:09;;;;;;;1999.90;999.90;;;-0.80;99.90;;;;;;5048998;28;20399;-48
2021/01/08 06:39:36;;;;;;;1999.90;999.90;;;-0.80;99.90;;;;;;5060655;28;20872;-50
2021/01/08 06:42:02;;;;;;;1999.90;999.90;;;-0.80;99.90;;;;;;5068240;28;20432;-48
2021/01/08 06:44:30;;;;;;;1999.90;999.90;;;-0.70;99.90;;;;;;5065130;28;20819;-52
2021/01/08 06:46:58;;;;;;;1999.90;999.90;;;-0.70;99.90;;;;;;5062731;28;20573;-48
2021/01/08 06:49:24;;;;;;;1999.90;999.90;;;-0.70;99.90;;;;;;5062158;28;20434;-49
2021/01/08 06:51:50;;;;;;;1999.90;999.90;;;-0.70;99.90;;;;;;5064007;28;20440;-47
2021/01/08 06:54:16;;;;;;;1999.90;999.90;;;-0.70;99.90;;;;;;5053889;28;20510;-48
2021/01/08 06:56:46;;;;;;;1999.90;999.90;;;-0.70;99.90;;;;;;5048433;28;20594;-49
2021/01/08 06:59:13;;;;;;;1999.90;999.90;;;-0.70;99.90;;;;;;5049331;28;20487;-48
2021/01/08 07:01:57;;;;;;;1999.90;999.90;;;-0.70;99.90;;;;;;5052992;28;20432;-48
2021/01/08 07:04:29;;;;;;;1999.90;999.90;;;-0.60;99.90;;;;;;5061658;28;20456;-48
2021/01/08 07:06:58;;;;;;;1999.90;999.90;;;-0.60;99.90;;;;;;5061188;28;20441;-47
2021/01/08 07:09:38;;;;;;;1999.90;999.90;;;-0.60;99.90;;;;;;5048416;28;20423;-48
2021/01/08 07:12:05;;;;;;;1999.90;999.90;;;-0.60;99.90;;;;;;5047809;28;20485;-47
2021/01/08 07:14:34;;;;;;;1999.90;999.90;;;-0.60;99.90;;;;;;5050868;28;20497;-48
2021/01/08 07:17:01;;;;;;;1999.90;999.90;;;-0.60;99.90;;;;;;5060944;28;20528;-48
2021/01/08 07:19:28;;;;;;;1999.90;999.90;;;-0.60;99.90;;;;;;5060934;28;20441;-47
2021/01/08 07:21:59;;;;;;;1999.90;999.90;;;-0.50;99.90;;;;;;5058810;28;20883;-47
2021/01/08 07:24:35;;;;;;;1999.90;999.90;;;-0.50;99.90;;;;;;5048618;28;20830;-48
2021/01/08 07:27:14;;;;;;;1999.90;999.90;;;-0.50;99.90;;;;;;5055223;28;20410;-49
2021/01/08 07:29:47;;;;;;;1999.90;999.90;;;-0.50;99.90;;;;;;5043099;28;20497;-46
2021/01/08 07:32:12;;;;;;;1999.90;999.90;;;-0.40;99.90;;;;;;5034428;28;20442;-47
2021/01/08 07:34:38;;;;;;;1999.90;999.90;;;-0.50;99.90;;;;;;5036642;28;20523;-49
2021/01/08 07:37:04;;;;;;;1999.90;999.90;;;-0.50;99.90;;;;;;5034376;28;20179;-47
2021/01/08 07:39:42;;;;;;;1999.90;999.90;;;-0.50;99.90;;;;;;5043405;28;20232;-48
2021/01/08 07:42:29;;;;;;;1999.90;999.90;;;-0.60;99.90;;;;;;5035044;28;20180;-47
2021/01/08 07:44:55;;;;;;;1999.90;999.90;;;-0.50;99.90;;;;;;5032947;28;20508;-47
2021/01/08 07:47:21;;;;;;;1999.90;999.90;;;-0.50;99.90;;;;;;5037047;28;20467;-47
2021/01/08 07:50:10;;;;;;;1999.90;999.90;;;-0.40;99.90;;;;;;5033434;28;20207;-47
2021/01/08 07:52:37;;;;;;;1999.90;999.90;;;-0.50;99.90;;;;;;5034344;28;20418;-51
2021/01/08 07:55:03;;;;;;;1999.90;999.90;;;-0.40;99.90;;;;;;5033770;28;20469;-47
2021/01/08 07:57:28;;;;;;;1999.90;999.90;;;-0.40;99.90;;;;;;5036843;28;20499;-48
2021/01/08 07:59:54;;;;;;;1999.90;999.90;;;-0.40;99.90;;;;;;5034076;28;20438;-49
2021/01/08 08:02:20;;;;;;;1999.90;999.90;;;-0.30;99.90;;;;;;5034102;28;20196;-47
2021/01/08 08:04:46;;;;;;;1999.90;999.90;;;-0.30;99.90;;;;;;5045371;28;20279;-47
2021/01/08 08:07:13;;;;;;;1999.90;999.90;;;-0.40;99.90;;;;;;5052935;28;20417;-47
2021/01/08 08:09:39;;;;;;;1999.90;999.90;;;-0.30;99.90;;;;;;5046177;28;20476;-47
2021/01/08 08:12:09;;;;;;;1999.90;999.90;;;-0.20;99.90;;;;;;5052238;28;20937;-48
2021/01/08 08:14:35;;;;;;;1999.90;999.90;;;-0.20;99.90;;;;;;5052278;28;20452;-49
2021/01/08 08:17:01;;;;;;;1999.90;999.90;;;-0.20;99.90;;;;;;5050848;28;20957;-49
2021/01/08 08:19:33;;;;;;;1999.90;999.90;;;-0.20;99.90;;;;;;5035210;28;20314;-47
2021/01/08 08:21:59;;;;;;;1999.90;999.90;;;-0.20;99.90;;;;;;5035268;28;20743;-52
2021/01/08 08:24:27;;;;;;;1999.90;999.90;;;-0.20;99.90;;;;;;5035224;28;20465;-50
2021/01/08 08:26:53;;;;;;;1999.90;999.90;;;-0.20;99.90;;;;;;5035722;28;20189;-51
2021/01/08 08:29:19;;;;;;;1999.90;999.90;;;-0.10;99.90;;;;;;5036747;28;20432;-49
2021/01/08 08:31:50;;;;;;;1999.90;999.90;;;-0.10;99.90;;;;;;5035473;28;20434;-48
2021/01/08 08:34:27;;;;;;;1999.90;999.90;;;0.00;99.90;;;;;;5033482;28;20566;-48
2021/01/08 08:36:52;;;;;;;1999.90;999.90;;;0.00;99.90;;;;;;5035309;28;20446;-47
2021/01/08 08:39:18;;;;;;;1999.90;999.90;;;0.10;99.90;;;;;;5034341;28;20443;-48
2021/01/08 08:41:45;;;;;;;1999.90;999.90;;;0.10;99.90;;;;;;5036241;28;20224;-49
2021/01/08 08:44:16;;;;;;;1999.90;999.90;;;0.10;99.90;;;;;;5036370;28;21776;-47
2021/01/08 08:46:46;;;;;;;1999.90;999.90;;;0.10;99.90;;;;;;5032278;28;20439;-50
2021/01/08 08:49:13;;;;;;;1999.90;999.90;;;0.10;99.90;;;;;;5041486;28;20430;-48
2021/01/08 15:43:54;;;;;;;1999.90;999.90;;;-0.20;99.90;;;;;;5052558;28;20613;-50
2021/01/08 15:46:20;;;;;;;1999.90;999.90;;;-0.20;99.90;;;;;;5026929;28;20533;-50
2021/01/08 15:48:46;;;;;;;1999.90;999.90;;;-0.20;99.90;;;;;;5024394;28;20191;-49
2021/01/08 15:51:12;;;;;;;1999.90;999.90;;;-0.10;99.90;;;;;;5024482;28;20182;-50
2021/01/08 15:53:38;;;;;;;1999.90;999.90;;;-0.10;99.90;;;;;;5024973;28;21003;-49
2021/01/08 15:56:04;;;;;;;1999.90;999.90;;;-0.10;99.90;;;;;;5025969;28;20198;-51
2021/01/08 15:58:30;;;;;;;1999.90;999.90;;;-0.10;99.90;;;;;;5030079;28;20562;-50
2021/01/08 16:00:57;;;;;;;1999.90;999.90;;;-0.10;99.90;;;;;;5033255;28;20426;-50
2021/01/08 16:03:24;;;;;;;1999.90;999.90;;;-0.20;99.90;;;;;;5031270;28;20477;-50
2021/01/08 16:05:50;;;;;;;1999.90;999.90;;;-0.20;99.90;;;;;;5029280;28;20445;-50
2021/01/08 16:08:16;;;;;;;1999.90;999.90;;;-0.20;99.90;;;;;;5028348;28;20426;-49
2021/01/08 16:10:42;;;;;;;1999.90;999.90;;;-0.20;99.90;;;;;;5033168;28;20416;-49
2021/01/08 16:13:08;;;;;;;1999.90;999.90;;;-0.20;99.90;;;;;;5028521;28;20444;-50
2021/01/08 16:15:33;;;;;;;1999.90;999.90;;;-0.30;99.90;;;;;;5026628;28;20469;-49
2021/01/08 16:18:00;;;;;;;1999.90;999.90;;;-0.30;99.90;;;;;;5028682;28;20191;-50
2021/01/08 16:20:28;;;;;;;1999.90;999.90;;;-0.30;99.90;;;;;;5027328;28;20535;-50
2021/01/08 16:22:53;;;;;;;1999.90;999.90;;;-0.30;99.90;;;;;;5027965;28;20516;-49
2021/01/08 16:25:20;;;;;;;1999.90;999.90;;;-0.20;99.90;;;;;;5030048;28;21111;-51
2021/01/08 16:27:46;;;;;;;1999.90;999.90;;;-0.30;99.90;;;;;;5028915;28;21183;-49
2021/01/08 16:30:13;;;;;;;1999.90;999.90;;;-0.30;99.90;;;;;;5030693;28;20444;-48
2021/01/08 16:32:39;;;;;;;1999.90;999.90;;;-0.20;99.90;;;;;;5031213;28;21033;-52
2021/01/08 16:35:08;;;;;;;1999.90;999.90;;;-0.20;99.90;;;;;;5026719;28;20487;-50
2021/01/08 16:37:34;;;;;;;1999.90;999.90;;;-0.20;99.90;;;;;;5025681;28;20253;-49
2021/01/08 16:40:00;;;;;;;1999.90;999.90;;;-0.10;99.90;;;;;;5030928;28;20418;-51
2021/01/08 16:42:25;;;;;;;1999.90;999.90;;;-0.10;99.90;;;;;;5024323;28;20503;-50
2021/01/08 16:44:51;;;;;;;1999.90;999.90;;;-0.10;99.90;;;;;;5029546;28;20464;-51
2021/01/08 16:47:18;;;;;;;1999.90;999.90;;;-0.20;99.90;;;;;;5027955;28;20188;-49
2021/01/08 16:49:46;;;;;;;1999.90;999.90;;;-0.20;99.90;;;;;;5025124;28;20192;-49
2021/01/08 16:52:11;;;;;;;1999.90;999.90;;;-0.20;99.90;;;;;;5023649;28;20441;-48
2021/01/08 16:54:37;;;;;;;1999.90;999.90;;;-0.10;99.90;;;;;;5017390;28;20454;-51
2021/01/08 16:57:03;;;;;;;1999.90;999.90;;;-0.10;99.90;;;;;;5013286;28;20252;-50
2021/01/08 16:59:28;;;;;;;1999.90;999.90;;;-0.10;99.90;;;;;;5012104;28;20588;-48
2021/01/08 17:01:54;;;;;;;1999.90;999.90;;;-0.10;99.90;;;;;;5016115;28;20207;-49
2021/01/08 17:04:20;;;;;;;1999.90;999.90;;;-0.10;99.90;;;;;;5015706;28;20241;-50
2021/01/08 17:06:45;;;;;;;1999.90;999.90;;;0.10;99.90;;;;;;5017872;28;20189;-51
2021/01/08 17:09:11;;;;;;;1999.90;999.90;;;0.10;99.90;;;;;;5018885;28;20255;-49
2021/01/08 17:11:37;;;;;;;1999.90;999.90;;;0.10;99.90;;;;;;5016198;28;20191;-49
2021/01/08 17:14:03;;;;;;;1999.90;999.90;;;0.10;99.90;;;;;;5006819;28;20217;-48
2021/01/08 17:16:29;;;;;;;1999.90;999.90;;;0.20;99.90;;;;;;5016625;28;20434;-48
2021/01/08 17:18:57;;;;;;;1999.90;999.90;;;0.20;99.90;;;;;;5022762;28;20424;-49
2021/01/08 17:21:37;;;;;;;1999.90;999.90;;;0.10;99.90;;;;;;5021120;28;20202;-49
2021/01/08 17:24:07;;;;;;;1999.90;999.90;;;0.10;99.90;;;;;;5017429;28;20446;-50
2021/01/08 17:26:38;;;;;;;1999.90;999.90;;;0.10;99.90;;;;;;5025255;28;20414;-49
2021/01/08 17:29:07;;;;;;;1999.90;999.90;;;0.10;99.90;;;;;;5024219;28;20424;-48
2021/01/08 17:31:32;;;;;;;1999.90;999.90;;;0.00;99.90;;;;;;5017085;28;21073;-47
2021/01/08 17:33:58;;;;;;;1999.90;999.90;;;0.10;99.90;;;;;;5026209;28;20437;-47
2021/01/08 17:36:24;;;;;;;1999.90;999.90;;;0.00;99.90;;;;;;5023108;28;20521;-48
2021/01/08 17:38:50;;;;;;;1999.90;999.90;;;0.00;99.90;;;;;;5012877;28;20431;-48
2021/01/08 17:41:16;;;;;;;1999.90;999.90;;;0.00;99.90;;;;;;5015543;28;20195;-49
2021/01/08 17:43:43;;;;;;;1999.90;999.90;;;-0.10;99.90;;;;;;5029419;28;20222;-48
2021/01/08 17:46:09;;;;;;;1999.90;999.90;;;-0.10;99.90;;;;;;5028496;28;20427;-48
2021/01/08 17:48:34;;;;;;;1999.90;999.90;;;0.00;99.90;;;;;;5027112;28;20886;-48
2021/01/08 17:51:00;;;;;;;1999.90;999.90;;;0.00;99.90;;;;;;5030239;28;20502;-48
2021/01/08 17:53:26;;;;;;;1999.90;999.90;;;-0.10;99.90;;;;;;5021259;28;20224;-51
2021/01/08 17:55:51;;;;;;;1999.90;999.90;;;-0.10;99.90;;;;;;5013984;28;20192;-49
2021/01/08 17:58:17;;;;;;;1999.90;999.90;;;-0.10;99.90;;;;;;5017129;28;20488;-48
2021/01/08 18:00:43;;;;;;;1999.90;999.90;;;0.00;99.90;;;;;;5025694;28;20938;-48
2021/01/08 18:03:10;;;;;;;1999.90;999.90;;;0.00;99.90;;;;;;5016342;28;20255;-49
2021/01/08 18:05:35;;;;;;;1999.90;999.90;;;0.00;99.90;;;;;;5011990;28;20207;-48
2021/01/08 18:08:01;;;;;;;1999.90;999.90;;;0.00;99.90;;;;;;5023435;28;20855;-48
2021/01/08 18:10:26;;;;;;;1999.90;999.90;;;0.00;99.90;;;;;;5029151;28;20208;-49
2021/01/08 18:12:52;;;;;;;1999.90;999.90;;;0.00;99.90;;;;;;5022664;28;21100;-48
2021/01/08 18:15:18;;;;;;;1999.90;999.90;;;-0.20;99.90;;;;;;5015736;28;20208;-52
2021/01/08 18:17:43;;;;;;;1999.90;999.90;;;-0.20;99.90;;;;;;5019086;28;20196;-48
2021/01/08 18:20:10;;;;;;;1999.90;999.90;;;-0.20;99.90;;;;;;5020887;28;20508;-49
2021/01/08 18:22:35;;;;;;;1999.90;999.90;;;-0.10;99.90;;;;;;5020649;28;21033;-49
2021/01/08 18:25:01;;;;;;;1999.90;999.90;;;-0.10;99.90;;;;;;5028722;28;20463;-50
2021/01/08 18:27:26;;;;;;;1999.90;999.90;;;-0.10;99.90;;;;;;5018205;28;20189;-49
2021/01/08 18:29:53;;;;;;;1999.90;999.90;;;-0.10;99.90;;;;;;5013063;28;20184;-48
2021/01/08 18:32:19;;;;;;;1999.90;999.90;;;-0.10;99.90;;;;;;5015853;28;20188;-49
2021/01/08 18:34:45;;;;;;;1999.90;999.90;;;0.00;99.90;;;;;;5013438;28;20509;-49
2021/01/08 18:37:11;;;;;;;1999.90;999.90;;;0.00;99.90;;;;;;5011220;28;20500;-48
2021/01/08 18:39:39;;;;;;;1999.90;999.90;;;-0.10;99.90;;;;;;5013858;28;20447;-50
2021/01/08 18:42:05;;;;;;;1999.90;999.90;;;-0.10;99.90;;;;;;5015816;28;20216;-49
2021/01/08 18:44:31;;;;;;;1999.90;999.90;;;-0.10;99.90;;;;;;5016456;28;21016;-49
2021/01/08 18:46:57;;;;;;;1999.90;999.90;;;-0.10;99.90;;;;;;5012264;28;20491;-49
2021/01/08 18:49:23;;;;;;;1999.90;999.90;;;-0.10;99.90;;;;;;5012767;28;20545;-48
2021/01/08 18:51:49;;;;;;;1999.90;999.90;;;-0.10;99.90;;;;;;5019766;28;20530;-48
2021/01/08 18:54:15;;;;;;;1999.90;999.90;;;0.00;99.90;;;;;;5010948;28;20681;-52
2021/01/08 18:56:40;;;;;;;1999.90;999.90;;;-0.10;99.90;;;;;;5013878;28;20198;-49
2021/01/08 18:59:07;;;;;;;1999.90;999.90;;;-0.10;99.90;;;;;;5019033;28;20184;-50
2021/01/08 19:01:34;;;;;;;1999.90;999.90;;;-0.10;99.90;;;;;;5011575;28;20187;-49
2021/01/08 19:04:07;;;;;;;1999.90;999.90;;;-0.10;99.90;;;;;;5017424;28;20454;-49
2021/01/08 19:06:37;;;;;;;1999.90;999.90;;;-0.10;99.90;;;;;;5012013;28;20436;-52
2021/01/08 19:09:08;;;;;;;1999.90;999.90;;;-0.10;99.90;;;;;;5012539;28;20523;-51
2021/01/08 19:11:35;;;;;;;1999.90;999.90;;;-0.10;99.90;;;;;;5014511;28;20435;-49
2021/01/08 19:14:00;;;;;;;1999.90;999.90;;;-0.10;99.90;;;;;;5012255;28;20477;-53
2021/01/08 19:16:26;;;;;;;1999.90;999.90;;;-0.10;99.90;;;;;;5015681;28;20943;-48
2021/01/08 19:18:52;;;;;;;1999.90;999.90;;;-0.10;99.90;;;;;;5011574;28;20192;-49
2021/01/08 19:21:18;;;;;;;1999.90;999.90;;;-0.10;99.90;;;;;;5015858;28;20598;-52
2021/01/08 19:23:45;;;;;;;1999.90;999.90;;;0.00;99.90;;;;;;5011949;28;20550;-49
2021/01/08 19:26:22;;;;;;;1999.90;999.90;;;0.00;99.90;;;;;;5016032;28;20492;-49
2021/01/08 19:28:48;;;;;;;1999.90;999.90;;;0.00;99.90;;;;;;5016221;28;20525;-49
2021/01/08 19:31:14;;;;;;;1999.90;999.90;;;0.10;99.90;;;;;;5010627;28;20499;-51
2021/01/08 19:33:40;;;;;;;1999.90;999.90;;;0.10;99.90;;;;;;5014281;28;20469;-49
2021/01/08 19:36:07;;;;;;;1999.90;999.90;;;0.10;99.90;;;;;;5012992;28;20458;-48
2021/01/08 19:38:34;;;;;;;1999.90;999.90;;;0.10;99.90;;;;;;5014433;28;20445;-51
2021/01/08 19:40:59;;;;;;;1999.90;999.90;;;0.10;99.90;;;;;;5011590;28;21411;-49
2021/01/08 19:43:25;;;;;;;1999.90;999.90;;;0.10;99.90;;;;;;5011747;28;20561;-48
2021/01/08 19:45:51;;;;;;;1999.90;999.90;;;0.10;99.90;;;;;;5011998;28;20232;-48
2021/01/08 19:48:17;;;;;;;1999.90;999.90;;;0.00;99.90;;;;;;5014669;28;20197;-49
2021/01/08 19:50:43;;;;;;;1999.90;999.90;;;0.10;99.90;;;;;;5016086;28;20420;-52
2021/01/08 19:53:09;;;;;;;1999.90;999.90;;;0.10;99.90;;;;;;5014289;28;21128;-49
2021/01/08 19:55:35;;;;;;;1999.90;999.90;;;0.10;99.90;;;;;;5014540;28;20693;-48
2021/01/08 19:58:01;;;;;;;1999.90;999.90;;;0.10;99.90;;;;;;5014654;28;20887;-49
2021/01/08 20:00:28;;;;;;;1999.90;999.90;;;0.10;99.90;;;;;;5014898;28;20463;-50
2021/01/08 20:02:53;;;;;;;1999.90;999.90;;;0.10;99.90;;;;;;5019039;28;20463;-49
2021/01/08 20:05:19;;;;;;;1999.90;999.90;;;0.10;99.90;;;;;;5017505;28;20891;-50
2021/01/08 20:07:45;;;;;;;1999.90;999.90;;;0.00;99.90;;;;;;5022189;28;20181;-50
2021/01/08 20:10:11;;;;;;;1999.90;999.90;;;-0.10;99.90;;;;;;5013393;28;20268;-50
2021/01/08 20:12:43;;;;;;;1999.90;999.90;;;0.00;99.90;;;;;;5013560;28;20443;-52
2021/01/08 20:15:15;;;;;;;1999.90;999.90;;;-0.10;99.90;;;;;;5013082;28;20549;-49
2021/01/08 20:17:41;;;;;;;1999.90;999.90;;;0.00;99.90;;;;;;5012449;28;20770;-50
2021/01/08 20:20:07;;;;;;;1999.90;999.90;;;0.00;99.90;;;;;;5009687;28;20525;-51
2021/01/08 20:22:33;;;;;;;1999.90;999.90;;;0.10;99.90;;;;;;5010977;28;20545;-51
2021/01/08 20:24:59;;;;;;;1999.90;999.90;;;0.10;99.90;;;;;;5011385;28;20743;-51
2021/01/08 20:27:27;;;;;;;1999.90;999.90;;;0.10;99.90;;;;;;5013414;28;20204;-49
2021/01/08 20:29:53;;;;;;;1999.90;999.90;;;0.10;99.90;;;;;;5015767;28;20830;-49
2021/01/08 20:32:19;;;;;;;1999.90;999.90;;;0.10;99.90;;;;;;5014786;28;20441;-49
2021/01/08 20:34:46;;;;;;;1999.90;999.90;;;0.00;99.90;;;;;;5015349;28;20468;-52
2021/01/08 20:37:13;;;;;;;1999.90;999.90;;;0.00;99.90;;;;;;5016675;28;20802;-50
2021/01/08 20:39:39;;;;;;;1999.90;999.90;;;0.00;99.90;;;;;;5013461;28;20861;-51
2021/01/08 20:42:06;;;;;;;1999.90;999.90;;;0.00;99.90;;;;;;5017864;28;21273;-49
2021/01/08 20:44:32;;;;;;;1999.90;999.90;;;0.00;99.90;;;;;;5015811;28;20469;-49
2021/01/08 20:46:59;;;;;;;1999.90;999.90;;;-0.10;99.90;;;;;;5019598;28;20447;-53
2021/01/08 20:49:25;;;;;;;1999.90;999.90;;;-0.10;99.90;;;;;;5014753;28;20473;-50
2021/01/08 20:51:53;;;;;;;1999.90;999.90;;;0.00;99.90;;;;;;5014220;28;20435;-49
2021/01/08 20:54:19;;;;;;;1999.90;999.90;;;0.00;99.90;;;;;;5015538;28;20892;-50
2021/01/08 20:56:46;;;;;;;1999.90;999.90;;;0.10;99.90;;;;;;5012181;28;20899;-53
2021/01/08 20:59:12;;;;;;;1999.90;999.90;;;0.10;99.90;;;;;;5016116;28;20261;-53
2021/01/08 21:01:37;;;;;;;1999.90;999.90;;;0.00;99.90;;;;;;5015667;28;20442;-52
2021/01/08 21:04:04;;;;;;;1999.90;999.90;;;0.00;99.90;;;;;;5015522;28;20244;-49
2021/01/08 21:06:30;;;;;;;1999.90;999.90;;;0.00;99.90;;;;;;5013256;28;20179;-49
2021/01/08 21:08:56;;;;;;;1999.90;999.90;;;0.00;99.90;;;;;;5017959;28;20446;-48
2021/01/08 21:11:22;;;;;;;1999.90;999.90;;;0.10;99.90;;;;;;5013747;28;20438;-49
2021/01/08 21:13:48;;;;;;;1999.90;999.90;;;0.10;99.90;;;;;;5015058;28;20210;-51
2021/01/08 21:16:13;;;;;;;1999.90;999.90;;;0.10;99.90;;;;;;5013327;28;20981;-49
2021/01/08 21:18:39;;;;;;;1999.90;999.90;;;0.10;99.90;;;;;;5012113;28;21551;-50
2021/01/08 21:21:05;;;;;;;1999.90;999.90;;;0.10;99.90;;;;;;5014146;28;20193;-48
2021/01/08 21:23:30;;;;;;;1999.90;999.90;;;0.10;99.90;;;;;;5013442;28;20215;-51
2021/01/08 21:25:57;;;;;;;1999.90;999.90;;;0.10;99.90;;;;;;5011162;28;20196;-51
2021/01/08 21:28:23;;;;;;;1999.90;999.90;;;0.00;99.90;;;;;;5010128;28;20570;-53
2021/01/08 21:30:49;;;;;;;1999.90;999.90;;;-0.10;99.90;;;;;;5004502;28;20438;-51
2021/01/08 21:33:15;;;;;;;1999.90;999.90;;;-0.20;99.90;;;;;;5015108;28;20438;-49
2021/01/08 21:35:40;;;;;;;1999.90;999.90;;;-0.20;99.90;;;;;;5006831;28;20225;-49
2021/01/08 21:38:06;;;;;;;1999.90;999.90;;;-0.20;99.90;;;;;;5013712;28;21106;-48
2021/01/08 21:40:31;;;;;;;1999.90;999.90;;;-0.20;99.90;;;;;;5010512;28;20187;-48
2021/01/08 21:42:57;;;;;;;1999.90;999.90;;;-0.20;99.90;;;;;;5010458;28;20218;-49
2021/01/08 21:45:25;;;;;;;1999.90;999.90;;;-0.20;99.90;;;;;;5008832;28;20253;-49
2021/01/08 21:47:51;;;;;;;1999.90;999.90;;;-0.10;99.90;;;;;;5010228;28;20529;-48
2021/01/08 21:50:17;;;;;;;1999.90;999.90;;;-0.20;99.90;;;;;;5010290;28;20605;-52
2021/01/08 21:52:43;;;;;;;1999.90;999.90;;;-0.20;99.90;;;;;;5011496;28;20435;-50
2021/01/08 21:55:09;;;;;;;1999.90;999.90;;;-0.20;99.90;;;;;;5016205;28;20466;-52
2021/01/08 21:57:37;;;;;;;1999.90;999.90;;;-0.20;99.90;;;;;;5009109;28;20237;-51
2021/01/08 22:00:06;;;;;;;1999.90;999.90;;;-0.30;99.90;;;;;;5011851;28;20442;-48
2021/01/08 22:02:32;;;;;;;1999.90;999.90;;;-0.30;99.90;;;;;;5006055;28;20893;-48
2021/01/08 22:04:58;;;;;;;1999.90;999.90;;;-0.30;99.90;;;;;;5010718;28;20453;-51
2021/01/08 22:07:23;;;;;;;1999.90;999.90;;;-0.40;99.90;;;;;;5011485;28;20265;-48
2021/01/08 22:09:49;;;;;;;1999.90;999.90;;;-0.50;99.90;;;;;;5008655;28;20723;-48
2021/01/08 22:12:14;;;;;;;1999.90;999.90;;;-0.50;99.90;;;;;;5010733;28;20192;-53
2021/01/08 22:14:40;;;;;;;1999.90;999.90;;;-0.40;99.90;;;;;;5012451;28;20385;-52
2021/01/08 22:17:06;;;;;;;1999.90;999.90;;;-0.40;99.90;;;;;;5009979;28;20945;-51
2021/01/08 22:19:32;;;;;;;1999.90;999.90;;;-0.40;99.90;;;;;;5012672;28;20446;-48
2021/01/08 22:21:57;;;;;;;1999.90;999.90;;;-0.40;99.90;;;;;;5011173;28;20198;-49
2021/01/08 22:24:23;;;;;;;1999.90;999.90;;;-0.40;99.90;;;;;;5008784;28;20667;-51
2021/01/08 22:26:50;;;;;;;1999.90;999.90;;;-0.30;99.90;;;;;;5012712;28;20240;-50
2021/01/08 22:29:16;;;;;;;1999.90;999.90;;;-0.30;99.90;;;;;;5009371;28;20179;-49
2021/01/08 22:31:41;;;;;;;1999.90;999.90;;;-0.40;99.90;;;;;;5013301;28;20435;-50
2021/01/08 22:34:08;;;;;;;1999.90;999.90;;;-0.50;99.90;;;;;;5009460;28;20214;-49
2021/01/08 22:36:37;;;;;;;1999.90;999.90;;;-0.40;99.90;;;;;;5015487;28;20191;-49
2021/01/08 22:39:04;;;;;;;1999.90;999.90;;;-0.30;99.90;;;;;;5011248;28;20435;-49
2021/01/08 22:41:30;;;;;;;1999.90;999.90;;;-0.40;99.90;;;;;;5015273;28;20462;-49
2021/01/08 22:43:57;;;;;;;1999.90;999.90;;;-0.30;99.90;;;;;;5010830;28;20475;-49
2021/01/08 22:46:24;;;;;;;1999.90;999.90;;;-0.30;99.90;;;;;;5014978;28;20979;-49
2021/01/08 22:48:50;;;;;;;1999.90;999.90;;;-0.30;99.90;;;;;;5015748;28;20420;-51
2021/01/08 22:51:18;;;;;;;1999.90;999.90;;;-0.30;99.90;;;;;;5020057;28;20442;-49
2021/01/08 22:53:44;;;;;;;1999.90;999.90;;;-0.20;99.90;;;;;;5018648;28;20442;-50
2021/01/08 22:56:10;;;;;;;1999.90;999.90;;;-0.30;99.90;;;;;;5015532;28;20446;-49
2021/01/08 22:58:38;;;;;;;1999.90;999.90;;;-0.50;99.90;;;;;;5015054;28;20584;-48
2021/01/08 23:01:04;;;;;;;1999.90;999.90;;;-0.50;99.90;;;;;;5017705;28;20855;-50
2021/01/08 23:03:30;;;;;;;1999.90;999.90;;;-0.50;99.90;;;;;;5020895;28;20498;-53
2021/01/08 23:05:56;;;;;;;1999.90;999.90;;;-0.50;99.90;;;;;;5024511;28;20900;-48
2021/01/08 23:08:21;;;;;;;1999.90;999.90;;;-0.60;99.90;;;;;;5032834;28;20189;-49
2021/01/08 23:10:47;;;;;;;1999.90;999.90;;;-0.70;99.90;;;;;;5047224;28;20190;-49
2021/01/08 23:13:12;;;;;;;1999.90;999.90;;;-0.60;99.90;;;;;;5045841;28;20193;-51
2021/01/08 23:15:38;;;;;;;1999.90;999.90;;;-0.60;99.90;;;;;;5032760;28;20232;-51
2021/01/08 23:18:04;;;;;;;1999.90;999.90;;;-0.50;99.90;;;;;;5030860;28;20203;-49
2021/01/08 23:20:30;;;;;;;1999.90;999.90;;;-0.60;99.90;;;;;;5014669;28;20770;-49
2021/01/08 23:22:55;;;;;;;1999.90;999.90;;;-0.50;99.90;;;;;;5024701;28;20569;-50
2021/01/08 23:25:21;;;;;;;1999.90;999.90;;;-0.50;99.90;;;;;;5016727;28;20683;-49
2021/01/08 23:27:47;;;;;;;1999.90;999.90;;;-0.60;99.90;;;;;;5017516;28;20637;-50
2021/01/08 23:30:19;;;;;;;1999.90;999.90;;;-0.60;99.90;;;;;;5026323;28;20435;-48
2021/01/08 23:32:51;;;;;;;1999.90;999.90;;;-0.60;99.90;;;;;;5011013;28;20246;-49
2021/01/08 23:35:19;;;;;;;1999.90;999.90;;;-0.60;99.90;;;;;;5018656;28;21193;-48
2021/01/08 23:37:45;;;;;;;1999.90;999.90;;;-0.50;99.90;;;;;;5012047;28;20512;-48
2021/01/08 23:40:13;;;;;;;1999.90;999.90;;;-0.50;99.90;;;;;;5012203;28;20503;-52
2021/01/08 23:42:40;;;;;;;1999.90;999.90;;;-0.60;99.90;;;;;;5022255;28;20496;-48
2021/01/08 23:45:08;;;;;;;1999.90;999.90;;;-0.60;99.90;;;;;;5029439;28;20492;-47
